AID weather

Anderson Municipal Darlington Field
Anderson, Indiana, United States

Public forecast

Using degrees Fahrenheit for public forecast. Weather courtesy of forecast.io.

Current aviation weather report (METAR) for Anderson Municipal Darlington Field

Retrieved 2020/06/01 05:35 UTC (1 minute ago):

KAID 010535Z AUTO 13005KT 10SM CLR 09/08 A3030 RMK AO2 T00920080

Closest aviation forecast (TAF) to Anderson Municipal Darlington Field

Closest forecast is Indianapolis International Airport, 39.2 nm (72.6 km) SW. Retrieved 2020-06-01 00:22 UTC (5 hours ago):

TAF KIND 312320Z 0100/0206 04005KT P6SM FEW250 FM011400 15006KT P6SM FEW250 FM011900 19007KT P6SM SCT100